Terminal Aerodrome Forecast
Issued by NWS

Home | Current Version | Previous Version | Text Only | Print | Product List | Glossary On
Versions: 1 2 3 4 5 6 7 8 9 10 11 12 13 14 15 16 17
000
FTUS42 KJAX 011120
TAFCRG
TAF
KCRG 011120Z 0112/0212 27007KT P6SM BKN020 WS020/29035KT
     FM011400 27011G17KT P6SM SCT025 BKN200
     FM011800 33008KT P6SM VCTS BKN040CB
     FM020000 06005KT P6SM SCT035 BKN200=

USA.gov is the U.S. government's official web portal to all federal, state and local government web resources and services.